KMWT

Mount Ida Airport

Mount Ida, Arkansas, USA
METAR KMWT 230951Z AUTO 00000KT 3SM RA BR FEW020 BKN049 OVC070 09/09 A3019 RMK AO2 SLP226 P0029 T00940094
Observed Flight Rules
Feb-23 @ 09:51 UTC (38 minutes ago) Marginal Visual Flight Rules
Wind Visibility Clouds Conditions
Calm 3 miles
  • Few at 2,000' AGL
  • Broken at 4,900' AGL
  • Overcast at 7,000' AGL
  • Rain
  • Mist
Temperatures Readings Precipitation
Current 9°C / 48°F
Dewpoint 9°C / 48°F
Humidity 100%
Altimeter 30.19" Hg
Pressure 1022.6 hPa
Elevation 214
Current Rain 0.29
METAR KMWT 230951Z AUTO 00000KT 3SM RA BR FEW020 BKN049 OVC070 09/09 A3019 RMK AO2 SLP226 P0029 T00940094
Observed Flight Rules
Feb-23 @ 09:51 UTC
(38 minutes ago)
MVFR
Wind Visibility
Calm 3 miles
Clouds
  • Few at 2,000' AGL
  • Broken at 4,900' AGL
  • Overcast at 7,000' AGL
Conditions
  • Rain
  • Mist
Temperature Dewpoint
9°C / 48°F 9°C / 48°F
Humidity Altimeter Pressure
100% 30.19" Hg 1022.6 hPa
Current Rain
0.29